createdAt,value
2023-04-18T00:00:07.740Z,7.02
2023-04-18T00:02:39.868Z,7.06
2023-04-18T00:05:07.797Z,7.14
2023-04-18T00:07:35.558Z,7.10
2023-04-18T00:10:04.130Z,7.01
2023-04-18T00:12:32.001Z,7.06
2023-04-18T00:14:58.859Z,7.11
2023-04-18T00:17:28.464Z,7.27
2023-04-18T00:19:58.331Z,7.30
2023-04-18T00:22:25.896Z,7.09
2023-04-18T00:24:52.887Z,6.99
2023-04-18T00:27:20.665Z,7.21
2023-04-18T00:29:48.028Z,7.11
2023-04-18T00:32:16.766Z,6.98
2023-04-18T00:34:43.587Z,6.86
2023-04-18T00:37:13.015Z,6.67
2023-04-18T00:39:42.132Z,6.69
2023-04-18T00:42:09.020Z,6.82
2023-04-18T00:44:35.890Z,6.64
2023-04-18T00:47:02.801Z,6.64
2023-04-18T00:49:29.807Z,6.74
2023-04-18T00:51:57.064Z,6.64
2023-04-18T00:54:24.654Z,6.50
2023-04-18T00:56:54.651Z,6.55
2023-04-18T00:59:22.413Z,6.36
2023-04-18T01:01:49.297Z,6.37
2023-04-18T01:04:16.784Z,6.27
2023-04-18T01:06:45.641Z,6.39
2023-04-18T01:09:14.083Z,6.27
2023-04-18T01:11:40.892Z,6.34
2023-04-18T01:14:09.247Z,6.40
2023-04-18T01:16:37.214Z,6.25
2023-04-18T01:19:05.860Z,6.21
2023-04-18T01:21:37.545Z,6.12
2023-04-18T01:24:08.372Z,6.02
2023-04-18T01:26:35.256Z,5.96
2023-04-18T01:29:05.187Z,6.03
2023-04-18T01:31:39.750Z,6.00
2023-04-18T01:34:07.707Z,5.98
2023-04-18T01:36:36.060Z,5.95
2023-04-18T01:39:03.073Z,5.97
2023-04-18T01:41:32.733Z,6.02
2023-04-18T01:44:00.342Z,6.06
2023-04-18T01:46:27.866Z,6.09
2023-04-18T01:48:55.288Z,6.03
2023-04-18T01:51:22.210Z,6.14
2023-04-18T01:53:49.362Z,6.11
2023-04-18T01:56:16.087Z,6.15
2023-04-18T01:58:42.961Z,6.20
2023-04-18T02:01:09.831Z,6.29
2023-04-18T02:03:38.807Z,6.35
2023-04-18T02:06:06.597Z,6.20
2023-04-18T02:08:35.947Z,6.26
2023-04-18T02:11:05.183Z,6.29
2023-04-18T02:13:32.173Z,6.40
2023-04-18T02:15:59.030Z,6.33
2023-04-18T02:18:27.212Z,6.48
2023-04-18T02:20:54.162Z,6.41
2023-04-18T02:23:22.430Z,6.43
2023-04-18T02:25:49.486Z,6.56
2023-04-18T02:28:17.682Z,6.58
2023-04-18T02:30:44.787Z,6.42
2023-04-18T02:33:11.902Z,6.42
2023-04-18T02:35:39.912Z,6.41
2023-04-18T02:38:07.134Z,6.44
2023-04-18T02:40:33.859Z,6.43
2023-04-18T02:43:02.146Z,6.49
2023-04-18T02:45:29.432Z,6.38
2023-04-18T02:47:59.147Z,6.44
2023-04-18T02:50:27.158Z,6.55
2023-04-18T02:52:56.134Z,6.52
2023-04-18T02:55:28.160Z,6.49
2023-04-18T02:57:58.597Z,6.61
2023-04-18T03:00:43.383Z,6.41
2023-04-18T03:03:36.650Z,6.35
2023-04-18T03:06:23.757Z,6.36
2023-04-18T03:08:51.854Z,6.40
2023-04-18T03:11:18.837Z,6.33
2023-04-18T03:13:46.094Z,6.31
2023-04-18T03:16:14.324Z,6.26
2023-04-18T03:18:42.335Z,6.37
2023-04-18T03:21:09.230Z,6.42
2023-04-18T03:23:36.795Z,6.36
2023-04-18T03:26:07.131Z,6.34
2023-04-18T03:28:35.931Z,6.43
2023-04-18T03:31:03.248Z,6.31
2023-04-18T03:33:32.612Z,6.36
2023-04-18T03:36:07.657Z,6.43
2023-04-18T03:38:34.781Z,6.47
2023-04-18T03:41:02.941Z,6.59
2023-04-18T03:43:33.686Z,6.69
2023-04-18T03:46:00.963Z,6.58
2023-04-18T03:48:29.126Z,6.51
2023-04-18T03:51:00.081Z,6.46
2023-04-18T03:53:27.003Z,6.44
2023-04-18T03:55:56.420Z,6.42
2023-04-18T03:58:30.365Z,6.29
2023-04-18T04:00:57.189Z,6.34
2023-04-18T04:03:24.018Z,6.41
2023-04-18T04:05:51.103Z,6.45
2023-04-18T04:08:17.962Z,6.33
2023-04-18T04:10:45.582Z,6.27
2023-04-18T04:13:12.533Z,6.26
2023-04-18T04:15:41.108Z,6.30
2023-04-18T04:18:10.260Z,6.47
2023-04-18T04:20:40.614Z,6.50
2023-04-18T04:23:12.749Z,6.37
2023-04-18T04:25:40.852Z,6.37
2023-04-18T04:28:17.530Z,6.37
2023-04-18T04:30:53.903Z,6.46
2023-04-18T04:33:25.132Z,6.25
2023-04-18T04:35:55.528Z,6.33
2023-04-18T04:38:25.593Z,6.27
2023-04-18T04:40:54.056Z,6.38
2023-04-18T04:43:21.704Z,6.41
2023-04-18T04:45:49.662Z,6.32
2023-04-18T04:48:16.859Z,6.20
2023-04-18T04:50:52.398Z,6.28
2023-04-18T04:53:19.555Z,6.42
2023-04-18T04:55:46.693Z,6.42
2023-04-18T04:58:13.809Z,6.39
2023-04-18T05:01:03.263Z,6.45
2023-04-18T05:03:32.069Z,6.49
2023-04-18T05:05:59.677Z,6.40
2023-04-18T05:08:26.864Z,6.53
2023-04-18T05:10:53.626Z,6.53
2023-04-18T05:13:20.557Z,6.61
2023-04-18T05:15:47.475Z,6.50
2023-04-18T05:18:14.456Z,6.59
2023-04-18T05:20:41.257Z,6.59
2023-04-18T05:23:08.076Z,6.51
2023-04-18T05:25:34.852Z,6.64
2023-04-18T05:28:04.514Z,6.55
2023-04-18T05:30:31.407Z,6.56
2023-04-18T05:32:58.316Z,6.63
2023-04-18T05:35:25.260Z,6.78
2023-04-18T05:37:52.167Z,6.82
2023-04-18T05:40:18.986Z,6.87
2023-04-18T05:42:45.768Z,6.86
2023-04-18T05:45:12.730Z,6.83
2023-04-18T05:47:39.480Z,6.87
2023-04-18T05:50:07.404Z,6.93
2023-04-18T05:52:34.394Z,7.02
2023-04-18T05:55:01.289Z,6.86
2023-04-18T05:57:28.078Z,6.85
2023-04-18T05:59:54.899Z,6.94
2023-04-18T06:02:22.316Z,6.85
2023-04-18T06:04:50.022Z,6.92
2023-04-18T06:07:16.905Z,6.96
2023-04-18T06:09:43.783Z,6.98
2023-04-18T06:12:10.862Z,6.88
2023-04-18T06:14:37.685Z,6.89
2023-04-18T06:17:04.542Z,6.96
2023-04-18T06:19:31.479Z,6.94
2023-04-18T06:21:58.291Z,6.91
2023-04-18T06:24:25.289Z,6.97
2023-04-18T06:26:52.281Z,6.94
2023-04-18T06:29:19.150Z,6.95
2023-04-18T06:31:46.788Z,6.91
2023-04-18T06:34:14.163Z,6.91
2023-04-18T06:36:41.109Z,6.95
2023-04-18T06:39:08.165Z,7.00
2023-04-18T06:41:35.063Z,7.02
2023-04-18T06:44:03.413Z,7.09
2023-04-18T06:46:31.696Z,6.88
2023-04-18T06:48:58.820Z,7.06
2023-04-18T06:51:25.618Z,7.24
2023-04-18T06:53:55.784Z,7.24
2023-04-18T06:56:23.024Z,7.28
2023-04-18T06:58:50.039Z,7.23
2023-04-18T07:01:16.945Z,7.10
2023-04-18T07:03:43.888Z,7.19
2023-04-18T07:06:11.108Z,7.04
2023-04-18T07:08:38.373Z,7.18
2023-04-18T07:11:06.745Z,7.16
2023-04-18T07:13:33.634Z,7.32
2023-04-18T07:16:01.685Z,7.32
2023-04-18T07:18:37.433Z,7.44
2023-04-18T07:21:07.871Z,7.39
2023-04-18T07:23:35.674Z,7.26
2023-04-18T07:26:03.256Z,7.33
2023-04-18T07:28:31.222Z,7.57
2023-04-18T07:30:58.395Z,7.54
2023-04-18T07:33:25.326Z,7.64
2023-04-18T07:35:53.215Z,7.58
2023-04-18T07:38:20.412Z,7.61
2023-04-18T07:40:47.218Z,7.76
2023-04-18T07:43:13.997Z,7.84
2023-04-18T07:45:43.384Z,7.98
2023-04-18T07:48:11.403Z,8.08
2023-04-18T07:50:38.355Z,8.15
2023-04-18T07:53:05.259Z,8.20
2023-04-18T07:55:32.038Z,8.19
2023-04-18T07:57:58.962Z,8.30
2023-04-18T08:00:26.384Z,8.44
2023-04-18T08:02:53.407Z,8.35
2023-04-18T08:05:20.547Z,8.43
2023-04-18T08:07:47.407Z,8.56
2023-04-18T08:10:14.158Z,8.49
2023-04-18T08:12:41.235Z,8.51
2023-04-18T08:15:08.802Z,8.64
2023-04-18T08:17:36.127Z,8.79
2023-04-18T08:20:07.328Z,8.90
2023-04-18T08:22:34.266Z,9.05
2023-04-18T08:25:05.451Z,9.07
2023-04-18T08:27:32.910Z,9.07
2023-04-18T08:30:00.789Z,9.01
2023-04-18T08:32:27.818Z,8.78
2023-04-18T08:34:59.114Z,9.02
2023-04-18T08:37:27.889Z,8.97
2023-04-18T08:39:54.735Z,8.98
2023-04-18T08:42:23.012Z,8.81
2023-04-18T08:44:49.944Z,8.83
2023-04-18T08:47:16.725Z,8.92
2023-04-18T08:49:46.835Z,8.85
2023-04-18T08:52:14.747Z,8.84
2023-04-18T08:54:42.883Z,8.95
2023-04-18T08:57:16.774Z,8.98
2023-04-18T08:59:46.337Z,9.01
2023-04-18T09:02:16.344Z,9.01
2023-04-18T09:04:45.432Z,9.08
2023-04-18T09:07:15.391Z,9.01
2023-04-18T09:09:47.850Z,9.02
2023-04-18T09:12:22.778Z,9.16
2023-04-18T09:14:51.862Z,9.12
2023-04-18T09:17:36.192Z,9.20
2023-04-18T09:20:09.442Z,9.24
2023-04-18T09:23:03.967Z,9.37
2023-04-18T09:25:39.830Z,9.49
2023-04-18T09:28:30.755Z,9.63
2023-04-18T09:31:17.848Z,9.74
2023-04-18T09:33:56.917Z,9.72
2023-04-18T09:36:27.950Z,9.93
2023-04-18T09:38:56.976Z,10.01
2023-04-18T09:41:24.401Z,10.04
2023-04-18T09:44:09.248Z,10.17
2023-04-18T09:46:37.166Z,10.28
2023-04-18T09:49:04.036Z,10.33
2023-04-18T09:51:31.919Z,10.47
2023-04-18T09:53:58.638Z,10.57
2023-04-18T09:56:26.442Z,10.65
2023-04-18T09:58:59.162Z,10.71
2023-04-18T10:01:29.563Z,10.71
2023-04-18T10:03:57.607Z,10.87
2023-04-18T10:06:27.433Z,10.74
2023-04-18T10:08:55.278Z,10.89
2023-04-18T10:11:22.183Z,10.81
2023-04-18T10:13:49.860Z,10.95
2023-04-18T10:16:17.166Z,10.96
2023-04-18T10:18:44.089Z,11.02
2023-04-18T10:21:11.465Z,11.17
2023-04-18T10:23:39.920Z,11.17
2023-04-18T10:26:11.086Z,11.38
2023-04-18T10:28:57.749Z,11.43
2023-04-18T10:31:26.518Z,11.57
2023-04-18T10:34:06.648Z,11.57
2023-04-18T10:36:33.669Z,11.59
2023-04-18T10:39:03.282Z,11.57
2023-04-18T10:41:32.101Z,11.46
2023-04-18T10:44:08.766Z,11.56
2023-04-18T10:46:43.108Z,11.47
2023-04-18T10:49:16.274Z,11.63
2023-04-18T10:51:46.814Z,11.70
2023-04-18T10:54:24.761Z,11.83
2023-04-18T10:56:55.971Z,11.88
2023-04-18T10:59:24.307Z,11.96
2023-04-18T11:02:00.317Z,12.09
2023-04-18T11:04:27.291Z,12.09
2023-04-18T11:07:00.440Z,12.26
2023-04-18T11:09:27.302Z,12.34
2023-04-18T11:12:08.983Z,12.42
2023-04-18T11:14:45.022Z,12.60
2023-04-18T11:17:22.409Z,12.70
2023-04-18T11:19:50.218Z,12.76
2023-04-18T11:22:17.878Z,12.77
2023-04-18T11:24:45.165Z,12.79
2023-04-18T11:27:12.851Z,12.81
2023-04-18T11:29:39.710Z,12.95
2023-04-18T11:32:07.876Z,13.01
2023-04-18T11:34:36.007Z,13.01
2023-04-18T11:37:07.670Z,13.11
2023-04-18T11:39:36.449Z,13.18
2023-04-18T11:42:03.278Z,13.29
2023-04-18T11:44:30.204Z,13.38
2023-04-18T11:46:57.116Z,13.33
2023-04-18T11:49:32.209Z,13.34
2023-04-18T11:51:59.785Z,13.44
2023-04-18T11:54:56.605Z,13.40
2023-04-18T11:57:25.666Z,13.44
2023-04-18T11:59:59.551Z,13.34
2023-04-18T12:02:50.499Z,13.24
2023-04-18T12:05:29.256Z,13.16
2023-04-18T12:07:57.246Z,13.25
2023-04-18T12:10:27.291Z,13.28
2023-04-18T12:12:55.336Z,13.18
2023-04-18T12:15:28.315Z,13.28
2023-04-18T12:18:03.957Z,13.29
2023-04-18T12:20:34.983Z,13.32
2023-04-18T12:23:02.454Z,13.41
2023-04-18T12:25:29.848Z,13.55
2023-04-18T12:28:01.415Z,13.58
2023-04-18T12:30:32.025Z,13.63
2023-04-18T12:33:01.387Z,13.74
2023-04-18T12:35:28.969Z,14.03
2023-04-18T12:37:57.215Z,13.99
2023-04-18T12:40:26.337Z,14.22
2023-04-18T12:42:54.205Z,14.51
2023-04-18T12:45:22.208Z,14.69
2023-04-18T12:47:50.544Z,14.83
2023-04-18T12:50:23.150Z,15.16
2023-04-18T12:52:52.292Z,15.27
2023-04-18T12:55:19.258Z,15.76
2023-04-18T12:57:46.313Z,15.93
2023-04-18T13:00:13.815Z,16.28
2023-04-18T13:02:43.699Z,16.95
2023-04-18T13:05:12.813Z,17.09
2023-04-18T13:07:43.183Z,17.60
2023-04-18T13:10:12.253Z,17.78
2023-04-18T13:12:40.235Z,17.69
2023-04-18T13:15:08.646Z,18.35
2023-04-18T13:17:38.721Z,18.26
2023-04-18T13:20:07.066Z,18.47
2023-04-18T13:22:34.144Z,18.66
2023-04-18T13:25:00.879Z,19.13
2023-04-18T13:27:27.689Z,19.74
2023-04-18T13:29:55.253Z,20.02
2023-04-18T13:32:22.229Z,19.98
2023-04-18T13:34:49.546Z,19.91
2023-04-18T13:37:16.517Z,20.06
2023-04-18T13:39:43.414Z,19.66
2023-04-18T13:42:10.237Z,19.48
2023-04-18T13:44:37.874Z,19.51
2023-04-18T13:47:06.095Z,19.98
2023-04-18T13:49:33.720Z,20.36
2023-04-18T13:52:00.729Z,20.32
2023-04-18T13:54:29.116Z,20.45
2023-04-18T13:56:57.613Z,20.12
2023-04-18T13:59:25.380Z,20.48
2023-04-18T14:01:52.772Z,20.75
2023-04-18T14:04:23.538Z,20.91
2023-04-18T14:06:50.586Z,20.86
2023-04-18T14:09:18.072Z,20.61
2023-04-18T14:11:45.566Z,20.54
2023-04-18T14:14:12.394Z,20.79
2023-04-18T14:16:39.251Z,21.19
2023-04-18T14:19:06.607Z,20.89
2023-04-18T14:21:33.437Z,20.63
2023-04-18T14:24:00.513Z,20.67
2023-04-18T14:26:27.471Z,21.04
2023-04-18T14:28:54.209Z,21.06
2023-04-18T14:31:21.199Z,20.75
2023-04-18T14:33:47.995Z,21.09
2023-04-18T14:36:17.622Z,21.02
2023-04-18T14:38:48.412Z,21.33
2023-04-18T14:41:15.445Z,21.40
2023-04-18T14:43:42.395Z,22.50
2023-04-18T14:46:13.899Z,22.14
2023-04-18T14:48:40.991Z,21.61
2023-04-18T14:51:08.042Z,22.10
2023-04-18T14:53:35.037Z,21.68
2023-04-18T14:56:01.805Z,21.78
2023-04-18T14:58:28.645Z,21.39
2023-04-18T15:00:55.773Z,21.39
2023-04-18T15:03:22.826Z,21.61
2023-04-18T15:05:49.897Z,21.92
2023-04-18T15:08:16.741Z,22.24
2023-04-18T15:10:44.638Z,22.34
2023-04-18T15:13:12.176Z,22.62
2023-04-18T15:15:39.998Z,22.73
2023-04-18T15:18:08.369Z,22.76
2023-04-18T15:20:37.197Z,23.25
2023-04-18T15:23:04.158Z,23.25
2023-04-18T15:25:31.138Z,23.99
2023-04-18T15:28:14.932Z,23.66
2023-04-18T15:30:41.944Z,23.84
2023-04-18T15:33:08.908Z,23.37
2023-04-18T15:35:36.133Z,22.94
2023-04-18T15:38:03.046Z,23.79
2023-04-18T15:40:30.400Z,24.06
2023-04-18T15:42:59.551Z,23.72
2023-04-18T15:45:26.418Z,24.29
2023-04-18T15:47:53.474Z,24.27
2023-04-18T15:50:20.622Z,24.38
2023-04-18T15:52:47.643Z,24.47
2023-04-18T15:55:14.624Z,24.24
2023-04-18T15:57:41.996Z,25.66
2023-04-18T16:00:17.506Z,25.26
2023-04-18T16:02:45.260Z,25.05
2023-04-18T16:05:13.242Z,25.24
2023-04-18T16:07:41.392Z,25.20
2023-04-18T16:10:10.349Z,24.59
2023-04-18T16:12:38.433Z,25.11
2023-04-18T16:15:06.844Z,25.15
2023-04-18T16:17:33.861Z,25.05
2023-04-18T16:20:00.764Z,24.61
2023-04-18T16:22:28.455Z,24.03
2023-04-18T16:24:55.369Z,24.23
2023-04-18T16:27:22.279Z,23.99
2023-04-18T16:29:49.073Z,25.47
2023-04-18T16:32:15.965Z,25.89
2023-04-18T16:34:42.812Z,25.54
2023-04-18T16:37:09.699Z,24.96
2023-04-18T16:39:36.500Z,24.34
2023-04-18T16:42:03.976Z,24.92
2023-04-18T16:44:30.850Z,25.80
2023-04-18T16:46:57.895Z,25.48
2023-04-18T16:49:25.326Z,25.56
2023-04-18T16:51:52.274Z,24.81
2023-04-18T16:54:19.143Z,24.13
2023-04-18T16:56:46.029Z,25.95
2023-04-18T16:59:12.933Z,25.84
2023-04-18T17:01:39.769Z,25.94
2023-04-18T17:04:06.743Z,26.17
2023-04-18T17:06:34.116Z,24.94
2023-04-18T17:09:00.948Z,25.64
2023-04-18T17:11:27.990Z,25.20
2023-04-18T17:13:54.837Z,24.36
2023-04-18T17:16:21.881Z,24.80
2023-04-18T17:18:48.746Z,22.70
2023-04-18T17:21:15.623Z,22.18
2023-04-18T17:23:42.669Z,20.79
2023-04-18T17:26:10.117Z,19.85
2023-04-18T17:28:37.120Z,19.97
2023-04-18T17:31:04.477Z,18.86
2023-04-18T17:33:31.687Z,18.57
2023-04-18T17:35:59.002Z,17.80
2023-04-18T17:38:25.829Z,16.95
2023-04-18T17:41:02.692Z,16.71
2023-04-18T17:43:29.621Z,16.19
2023-04-18T17:45:59.436Z,15.75
2023-04-18T17:48:26.400Z,15.39
2023-04-18T17:50:56.221Z,15.50
2023-04-18T17:53:23.343Z,14.95
2023-04-18T17:55:52.305Z,14.85
2023-04-18T17:58:19.939Z,14.68
2023-04-18T18:00:46.832Z,14.43
2023-04-18T18:03:15.137Z,14.45
2023-04-18T18:05:44.729Z,14.17
2023-04-18T18:08:11.642Z,13.79
2023-04-18T18:10:39.261Z,13.54
2023-04-18T18:13:06.142Z,13.53
2023-04-18T18:15:33.268Z,13.69
2023-04-18T18:18:00.309Z,13.56
2023-04-18T18:20:27.525Z,13.04
2023-04-18T18:22:55.127Z,13.33
2023-04-18T18:25:21.944Z,13.21
2023-04-18T18:27:49.502Z,13.41
2023-04-18T18:30:17.343Z,13.09
2023-04-18T18:32:44.340Z,13.09
2023-04-18T18:35:11.447Z,12.36
2023-04-18T18:37:38.361Z,12.95
2023-04-18T18:40:07.449Z,12.63
2023-04-18T18:42:34.423Z,12.60
2023-04-18T18:45:01.766Z,12.40
2023-04-18T18:47:30.545Z,12.07
2023-04-18T18:49:57.424Z,12.00
2023-04-18T18:52:24.959Z,11.65
2023-04-18T18:54:51.826Z,11.43
2023-04-18T18:57:18.603Z,11.80
2023-04-18T18:59:45.434Z,11.78
2023-04-18T19:02:12.371Z,12.14
2023-04-18T19:04:39.326Z,11.93
2023-04-18T19:07:06.284Z,12.02
2023-04-18T19:09:33.450Z,11.99
2023-04-18T19:12:01.117Z,11.96
2023-04-18T19:14:27.939Z,11.65
2023-04-18T19:16:55.957Z,11.26
2023-04-18T19:19:22.723Z,11.21
2023-04-18T19:21:50.198Z,11.27
2023-04-18T19:24:17.733Z,11.38
2023-04-18T19:26:44.579Z,11.18
2023-04-18T19:29:14.469Z,11.09
2023-04-18T19:31:43.681Z,11.10
2023-04-18T19:34:10.933Z,10.85
2023-04-18T19:36:38.273Z,10.99
2023-04-18T19:39:05.164Z,10.86
2023-04-18T19:41:32.024Z,10.70
2023-04-18T19:43:59.004Z,10.60
2023-04-18T19:46:26.288Z,10.57
2023-04-18T19:48:53.123Z,10.58
2023-04-18T19:51:20.026Z,10.28
2023-04-18T19:53:46.860Z,10.17
2023-04-18T19:56:15.035Z,10.37
2023-04-18T19:58:46.757Z,10.20
2023-04-18T20:01:14.573Z,10.34
2023-04-18T20:03:41.728Z,10.19
2023-04-18T20:06:08.938Z,9.93
2023-04-18T20:08:38.236Z,10.08
2023-04-18T20:11:09.580Z,10.02
2023-04-18T20:13:37.558Z,9.95
2023-04-18T20:16:05.694Z,10.00
2023-04-18T20:18:33.992Z,9.98
2023-04-18T20:21:00.826Z,10.01
2023-04-18T20:23:28.260Z,9.87
2023-04-18T20:25:55.083Z,9.68
2023-04-18T20:28:22.414Z,9.67
2023-04-18T20:30:49.453Z,9.57
2023-04-18T20:33:16.583Z,9.77
2023-04-18T20:35:44.621Z,9.72
2023-04-18T20:38:12.403Z,9.68
2023-04-18T20:40:39.809Z,9.63
2023-04-18T20:43:10.134Z,9.48
2023-04-18T20:45:42.863Z,9.45
2023-04-18T20:48:10.381Z,9.61
2023-04-18T20:50:40.781Z,9.81
2023-04-18T20:53:08.398Z,9.63
2023-04-18T20:55:35.310Z,9.45
2023-04-18T20:58:02.122Z,9.36
2023-04-18T21:00:29.518Z,9.34
2023-04-18T21:02:56.594Z,9.44
2023-04-18T21:05:23.611Z,9.15
2023-04-18T21:07:50.654Z,9.05
2023-04-18T21:10:17.478Z,9.12
2023-04-18T21:12:44.277Z,9.16
2023-04-18T21:15:11.632Z,9.16
2023-04-18T21:17:38.606Z,9.33
2023-04-18T21:20:06.430Z,8.89
2023-04-18T21:22:33.235Z,9.16
2023-04-18T21:25:00.120Z,9.09
2023-04-18T21:27:27.010Z,8.92
2023-04-18T21:29:53.978Z,9.04
2023-04-18T21:32:21.162Z,9.11
2023-04-18T21:34:47.982Z,9.01
2023-04-18T21:37:14.829Z,8.91
2023-04-18T21:39:42.617Z,8.99
2023-04-18T21:42:11.248Z,8.87
2023-04-18T21:44:38.116Z,9.00
2023-04-18T21:47:04.931Z,9.15
2023-04-18T21:49:31.866Z,8.81
2023-04-18T21:51:58.752Z,8.81
2023-04-18T21:54:25.552Z,8.88
2023-04-18T21:56:52.353Z,8.68
2023-04-18T21:59:19.108Z,8.60
2023-04-18T22:01:45.950Z,8.79
2023-04-18T22:04:14.729Z,8.76
2023-04-18T22:06:41.998Z,8.48
2023-04-18T22:09:09.037Z,8.30
2023-04-18T22:11:35.807Z,8.36
2023-04-18T22:14:02.510Z,8.50
2023-04-18T22:16:29.283Z,8.52
2023-04-18T22:18:56.268Z,8.52
2023-04-18T22:21:23.104Z,8.34
2023-04-18T22:23:49.961Z,8.28
2023-04-18T22:26:16.861Z,8.02
2023-04-18T22:28:43.651Z,8.22
2023-04-18T22:31:10.479Z,8.24
2023-04-18T22:33:37.338Z,8.16
2023-04-18T22:36:04.447Z,8.02
2023-04-18T22:38:31.186Z,8.08
2023-04-18T22:40:59.435Z,8.30
2023-04-18T22:43:26.975Z,8.36
2023-04-18T22:45:53.845Z,8.26
2023-04-18T22:48:20.765Z,8.08
2023-04-18T22:50:47.670Z,8.04
2023-04-18T22:53:15.224Z,7.95
2023-04-18T22:55:43.685Z,8.02
2023-04-18T22:58:10.857Z,7.83
2023-04-18T23:00:37.720Z,7.91
2023-04-18T23:03:04.795Z,7.95
2023-04-18T23:05:31.864Z,7.84
2023-04-18T23:08:00.387Z,7.87
2023-04-18T23:10:27.797Z,7.86
2023-04-18T23:12:54.589Z,7.81
2023-04-18T23:15:22.883Z,7.88
2023-04-18T23:17:54.533Z,7.89
2023-04-18T23:20:21.883Z,7.88
2023-04-18T23:22:51.577Z,7.78
2023-04-18T23:25:19.800Z,7.80
2023-04-18T23:27:47.079Z,7.57
2023-04-18T23:30:14.200Z,7.03
2023-04-18T23:32:41.010Z,6.93
2023-04-18T23:35:08.239Z,7.37
2023-04-18T23:37:35.039Z,7.49
2023-04-18T23:40:02.613Z,7.44
2023-04-18T23:42:29.456Z,7.12
2023-04-18T23:44:57.802Z,7.33
2023-04-18T23:47:24.554Z,7.33
2023-04-18T23:49:51.414Z,7.13
2023-04-18T23:52:18.213Z,7.30
2023-04-18T23:54:45.789Z,7.34
2023-04-18T23:57:13.882Z,7.39
2023-04-18T23:59:40.693Z,6.95
